ADDS METAR Data INFO
IDs: Format: Raw Decoded Include TAF

Data at: 1006 UTC 12 Dec 2017

KLOL 120953Z AUTO 12005KT 10SM CLR M15/M18 A3058 RMK AO2 SLP396 T11501183 TSNO
KLOL 120853Z AUTO 34005KT 10SM CLR M14/M17 A3058 RMK AO2 SLP393 T11391167 50000 TSNO
KLOL 120753Z AUTO 07003KT 10SM CLR M13/M17 A3058 RMK AO2 SLP394 T11281167 400561167 TSNO
KLOL 120653Z AUTO 00000KT 10SM CLR M13/M17 A3058 RMK AO2 SLP398 T11281167 TSNO
KLOL 120553Z AUTO 09003KT 10SM CLR M12/M15 A3058 RMK AO2 SLP402 T11221150 10039 21122 53012 TSNO
KLOL 120453Z AUTO 26003KT 10SM CLR M08/M13 A3056 RMK AO2 SLP400 T10831128 TSNO
KLOL 120353Z AUTO 06005KT 10SM CLR M09/M13 A3055 RMK AO2 SLP402 T10891133 TSNO
KLOL 120253Z AUTO 00000KT 10SM CLR M07/M12 A3054 RMK AO2 SLP396 T10671122 53010 TSNO
KLOL 120153Z AUTO 29004KT 10SM CLR M03/M09 A3052 RMK AO2 SLP389 T10331094 TSNO
KLOL 120053Z AUTO 00000KT 10SM CLR 01/M07 A3051 RMK AO2 SLP376 T00061072 TSNO
KLOL 112353Z AUTO 22003KT 10SM CLR 04/M07 A3050 RMK AO2 SLP369 T00391072 10056 21033 55008 TSNO
KLOL 112253Z AUTO 23003KT 10SM CLR 05/M07 A3050 RMK AO2 SLP367 T00501067 TSNO
KLOL 112153Z AUTO 00000KT 10SM CLR 04/M07 A3051 RMK AO2 SLP367 T00441067 TSNO
KLOL 112053Z AUTO VRB03KT 10SM CLR 04/M07 A3053 RMK AO2 SLP375 T00391067 58018 TSNO
KLOL 111953Z AUTO 00000KT 10SM CLR 02/M07 A3055 RMK AO2 SLP382 T00221072 TSNO
KLOL 111853Z AUTO 00000KT 10SM CLR 00/M09 A3057 RMK AO2 SLP389 T00001089 TSNO
KLOL 111753Z AUTO 00000KT 10SM CLR M03/M10 A3059 RMK AO2 SLP401 T10331100 11033 21167 51009 TSNO
KLOL 111653Z AUTO 00000KT 10SM CLR M08/M12 A3058 RMK AO2 SLP409 T10831122 TSNO
KLOL 111553Z AUTO 00000KT 10SM CLR M13/M16 A3057 RMK AO2 SLP408 T11281161 TSNO
KLOL 111453Z AUTO 00000KT 10SM CLR M14/M16 A3056 RMK AO2 SLP406 T11391156 53007 TSNO
KLOL 111353Z AUTO 09003KT 10SM CLR M15/M18 A3055 RMK AO2 SLP400 T11501178 TSNO
KLOL 111253Z AUTO 11003KT 10SM CLR M15/M18 A3054 RMK AO2 SLP386 T11501178 TSNO
KLOL 111153Z AUTO 00000KT 10SM CLR M15/M18 A3053 RMK AO2 SLP378 T11501178 11072 21161 51002 TSNO
KLOL 111053Z AUTO 16003KT 10SM CLR M16/M18 A3053 RMK AO2 SLP376 T11561183 TSNO
KLOL 110953Z AUTO 08005KT 10SM CLR M13/M16 A3053 RMK AO2 SLP374 T11281161 TSNO
KLOL 110853Z AUTO 00000KT 10SM CLR M13/M16 A3053 RMK AO2 SLP374 T11331156 50002 TSNO
KLOL 110753Z AUTO 00000KT 10SM CLR M11/M15 A3053 RMK AO2 SLP373 T11111150 400671167 TSNO
KLOL 110653Z AUTO 00000KT 10SM CLR M08/M12 A3053 RMK AO2 SLP373 T10831117 TSNO
KLOL 110553Z AUTO 00000KT 10SM CLR M09/M14 A3052 RMK AO2 SLP378 T10941139 10050 21111 53006 TSNO
KLOL 110453Z AUTO 13004KT 10SM CLR M09/M14 A3051 RMK AO2 SLP383 T10941139 TSNO
KLOL 110353Z AUTO 00000KT 10SM CLR M08/M13 A3050 RMK AO2 SLP385 T10781128 TSNO
KLOL 110253Z AUTO 00000KT 10SM CLR M07/M13 A3050 RMK AO2 SLP388 T10721133 53005 TSNO
KLOL 110153Z AUTO 00000KT 10SM CLR M04/M11 A3049 RMK AO2 SLP380 T10441106 TSNO
KLOL 110053Z AUTO 24004KT 10SM CLR 00/M07 A3049 RMK AO2 SLP370 T00001067 TSNO
KLOL 102353Z AUTO 00000KT 10SM CLR 05/M07 A3049 RMK AO2 SLP360 T00501067 10067 21033 56014 TSNO
KLOL 102253Z AUTO 22003KT 10SM CLR 06/M07 A3049 RMK AO2 SLP356 T00611067 TSNO